sensor_id;sensor_type;location;lat;lon;timestamp;temperature;humidity
47482;DHT22;33219;47.410;9.730;2023-01-29T00:02:02;-2.80;99.90
47482;DHT22;33219;47.410;9.730;2023-01-29T00:04:31;-2.80;99.90
47482;DHT22;33219;47.410;9.730;2023-01-29T00:06:58;-2.90;99.90
47482;DHT22;33219;47.410;9.730;2023-01-29T00:09:27;-2.90;99.90
47482;DHT22;33219;47.410;9.730;2023-01-29T00:11:55;-2.90;99.90
47482;DHT22;33219;47.410;9.730;2023-01-29T00:14:22;-2.90;99.90
47482;DHT22;33219;47.410;9.730;2023-01-29T00:16:51;-2.80;99.90
47482;DHT22;33219;47.410;9.730;2023-01-29T00:19:19;-2.90;99.90
47482;DHT22;33219;47.410;9.730;2023-01-29T00:21:47;-2.90;99.90
47482;DHT22;33219;47.410;9.730;2023-01-29T00:24:15;-2.80;99.90
47482;DHT22;33219;47.410;9.730;2023-01-29T00:26:42;-2.90;99.90
47482;DHT22;33219;47.410;9.730;2023-01-29T00:29:10;-2.90;99.90
47482;DHT22;33219;47.410;9.730;2023-01-29T00:31:37;-2.90;99.90
47482;DHT22;33219;47.410;9.730;2023-01-29T00:34:05;-2.90;99.90
47482;DHT22;33219;47.410;9.730;2023-01-29T00:36:33;-2.90;99.90
47482;DHT22;33219;47.410;9.730;2023-01-29T00:39:01;-2.90;99.90
47482;DHT22;33219;47.410;9.730;2023-01-29T00:41:31;-2.90;99.90
47482;DHT22;33219;47.410;9.730;2023-01-29T00:44:16;-2.90;99.90
47482;DHT22;33219;47.410;9.730;2023-01-29T00:47:03;-2.90;99.90
47482;DHT22;33219;47.410;9.730;2023-01-29T00:49:30;-2.90;99.90
47482;DHT22;33219;47.410;9.730;2023-01-29T00:51:58;-3.00;99.90
47482;DHT22;33219;47.410;9.730;2023-01-29T00:54:43;-3.00;99.90
47482;DHT22;33219;47.410;9.730;2023-01-29T00:57:11;-3.00;99.90
47482;DHT22;33219;47.410;9.730;2023-01-29T00:59:38;-3.00;99.90
47482;DHT22;33219;47.410;9.730;2023-01-29T01:02:06;-3.10;99.90
47482;DHT22;33219;47.410;9.730;2023-01-29T01:04:52;-3.10;99.90
47482;DHT22;33219;47.410;9.730;2023-01-29T01:07:20;-3.20;99.90
47482;DHT22;33219;47.410;9.730;2023-01-29T01:09:47;-3.20;99.90
47482;DHT22;33219;47.410;9.730;2023-01-29T01:12:33;-3.30;99.90
47482;DHT22;33219;47.410;9.730;2023-01-29T01:15:01;-3.30;99.90
47482;DHT22;33219;47.410;9.730;2023-01-29T01:17:28;-3.20;99.90
47482;DHT22;33219;47.410;9.730;2023-01-29T01:19:56;-3.20;99.90
47482;DHT22;33219;47.410;9.730;2023-01-29T01:22:23;-3.20;99.90
47482;DHT22;33219;47.410;9.730;2023-01-29T01:24:51;-3.10;99.90
47482;DHT22;33219;47.410;9.730;2023-01-29T01:27:19;-3.00;99.90
47482;DHT22;33219;47.410;9.730;2023-01-29T01:29:46;-2.90;99.90
47482;DHT22;33219;47.410;9.730;2023-01-29T01:32:14;-2.80;99.90
47482;DHT22;33219;47.410;9.730;2023-01-29T01:34:42;-2.70;99.90
47482;DHT22;33219;47.410;9.730;2023-01-29T01:37:10;-2.70;99.90
47482;DHT22;33219;47.410;9.730;2023-01-29T01:39:38;-2.60;99.90
47482;DHT22;33219;47.410;9.730;2023-01-29T01:42:11;-2.60;99.90
47482;DHT22;33219;47.410;9.730;2023-01-29T01:44:58;-2.60;99.90
47482;DHT22;33219;47.410;9.730;2023-01-29T01:47:31;-2.50;99.90
47482;DHT22;33219;47.410;9.730;2023-01-29T01:50:02;-2.40;99.90
47482;DHT22;33219;47.410;9.730;2023-01-29T01:52:30;-2.40;99.90
47482;DHT22;33219;47.410;9.730;2023-01-29T01:54:59;-2.30;99.90
47482;DHT22;33219;47.410;9.730;2023-01-29T01:57:28;-2.20;99.90
47482;DHT22;33219;47.410;9.730;2023-01-29T02:00:01;-2.20;99.90
47482;DHT22;33219;47.410;9.730;2023-01-29T02:02:29;-2.20;99.90
47482;DHT22;33219;47.410;9.730;2023-01-29T02:05:14;-2.10;99.90
47482;DHT22;33219;47.410;9.730;2023-01-29T02:07:59;-2.00;99.90
47482;DHT22;33219;47.410;9.730;2023-01-29T02:10:46;-2.00;99.90
47482;DHT22;33219;47.410;9.730;2023-01-29T02:13:15;-2.00;99.90
47482;DHT22;33219;47.410;9.730;2023-01-29T02:15:45;-1.90;99.90
47482;DHT22;33219;47.410;9.730;2023-01-29T02:18:15;-1.90;99.90
47482;DHT22;33219;47.410;9.730;2023-01-29T02:21:10;-1.90;99.90
47482;DHT22;33219;47.410;9.730;2023-01-29T02:23:47;-1.90;99.90
47482;DHT22;33219;47.410;9.730;2023-01-29T02:29:04;-1.80;99.90
47482;DHT22;33219;47.410;9.730;2023-01-29T02:31:39;-1.80;99.90
47482;DHT22;33219;47.410;9.730;2023-01-29T02:37:04;-1.90;99.90
47482;DHT22;33219;47.410;9.730;2023-01-29T02:44:56;-2.00;99.90
47482;DHT22;33219;47.410;9.730;2023-01-29T02:47:35;-2.00;99.90
47482;DHT22;33219;47.410;9.730;2023-01-29T02:50:18;-2.10;99.90
47482;DHT22;33219;47.410;9.730;2023-01-29T02:55:33;-2.10;99.90
47482;DHT22;33219;47.410;9.730;2023-01-29T02:58:03;-2.10;99.90
47482;DHT22;33219;47.410;9.730;2023-01-29T03:00:32;-2.20;99.90
47482;DHT22;33219;47.410;9.730;2023-01-29T03:03:15;-2.20;99.90
47482;DHT22;33219;47.410;9.730;2023-01-29T03:08:29;-2.30;99.90
47482;DHT22;33219;47.410;9.730;2023-01-29T03:11:00;-2.30;99.90
47482;DHT22;33219;47.410;9.730;2023-01-29T03:14:13;-2.30;99.90
47482;DHT22;33219;47.410;9.730;2023-01-29T03:16:06;-2.40;99.90
47482;DHT22;33219;47.410;9.730;2023-01-29T03:18:36;-2.40;99.90
47482;DHT22;33219;47.410;9.730;2023-01-29T03:21:07;-2.40;99.90
47482;DHT22;33219;47.410;9.730;2023-01-29T03:23:37;-2.50;99.90
47482;DHT22;33219;47.410;9.730;2023-01-29T03:26:24;-2.50;99.90
47482;DHT22;33219;47.410;9.730;2023-01-29T03:29:11;-2.50;99.90
47482;DHT22;33219;47.410;9.730;2023-01-29T03:31:57;-2.60;99.90
47482;DHT22;33219;47.410;9.730;2023-01-29T03:34:43;-2.70;99.90
47482;DHT22;33219;47.410;9.730;2023-01-29T03:37:24;-2.70;99.90
47482;DHT22;33219;47.410;9.730;2023-01-29T03:39:47;-2.70;99.90
47482;DHT22;33219;47.410;9.730;2023-01-29T03:42:33;-2.80;99.90
47482;DHT22;33219;47.410;9.730;2023-01-29T03:44:59;-2.80;99.90
47482;DHT22;33219;47.410;9.730;2023-01-29T03:53:07;-2.80;99.90
47482;DHT22;33219;47.410;9.730;2023-01-29T03:55:39;-2.90;99.90
47482;DHT22;33219;47.410;9.730;2023-01-29T04:00:54;-2.90;99.90
47482;DHT22;33219;47.410;9.730;2023-01-29T04:03:20;-3.00;99.90
47482;DHT22;33219;47.410;9.730;2023-01-29T04:05:57;-3.10;99.90
47482;DHT22;33219;47.410;9.730;2023-01-29T04:08:28;-3.10;99.90
47482;DHT22;33219;47.410;9.730;2023-01-29T04:10:59;-3.10;99.90
47482;DHT22;33219;47.410;9.730;2023-01-29T04:13:29;-3.20;99.90
47482;DHT22;33219;47.410;9.730;2023-01-29T04:16:00;-3.10;99.90
47482;DHT22;33219;47.410;9.730;2023-01-29T04:18:28;-3.10;99.90
47482;DHT22;33219;47.410;9.730;2023-01-29T04:20:55;-3.20;99.90
47482;DHT22;33219;47.410;9.730;2023-01-29T04:23:25;-3.20;99.90
47482;DHT22;33219;47.410;9.730;2023-01-29T04:31:34;-3.20;99.90
47482;DHT22;33219;47.410;9.730;2023-01-29T04:34:27;-3.10;99.90
47482;DHT22;33219;47.410;9.730;2023-01-29T04:37:11;-3.10;99.90
47482;DHT22;33219;47.410;9.730;2023-01-29T04:39:59;-3.10;99.90
47482;DHT22;33219;47.410;9.730;2023-01-29T04:45:35;-3.10;99.90
47482;DHT22;33219;47.410;9.730;2023-01-29T04:50:37;-3.20;99.90
47482;DHT22;33219;47.410;9.730;2023-01-29T04:56:03;-3.20;99.90
47482;DHT22;33219;47.410;9.730;2023-01-29T04:58:45;-3.30;99.90
47482;DHT22;33219;47.410;9.730;2023-01-29T05:01:10;-3.30;99.90
47482;DHT22;33219;47.410;9.730;2023-01-29T05:03:40;-3.40;99.90
47482;DHT22;33219;47.410;9.730;2023-01-29T05:06:10;-3.40;99.90
47482;DHT22;33219;47.410;9.730;2023-01-29T05:08:38;-3.40;99.90
47482;DHT22;33219;47.410;9.730;2023-01-29T05:11:07;-3.40;99.90
47482;DHT22;33219;47.410;9.730;2023-01-29T05:13:37;-3.40;99.90
47482;DHT22;33219;47.410;9.730;2023-01-29T05:16:15;-3.40;99.90
47482;DHT22;33219;47.410;9.730;2023-01-29T05:18:42;-3.40;99.90
47482;DHT22;33219;47.410;9.730;2023-01-29T05:21:10;-3.30;99.90
47482;DHT22;33219;47.410;9.730;2023-01-29T05:23:38;-3.20;99.90
47482;DHT22;33219;47.410;9.730;2023-01-29T05:26:05;-3.10;99.90
47482;DHT22;33219;47.410;9.730;2023-01-29T05:28:33;-3.10;99.90
47482;DHT22;33219;47.410;9.730;2023-01-29T05:31:01;-3.10;99.90
47482;DHT22;33219;47.410;9.730;2023-01-29T05:33:30;-3.00;99.90
47482;DHT22;33219;47.410;9.730;2023-01-29T05:35:58;-3.10;99.90
47482;DHT22;33219;47.410;9.730;2023-01-29T05:38:26;-3.10;99.90
47482;DHT22;33219;47.410;9.730;2023-01-29T05:40:53;-3.00;99.90
47482;DHT22;33219;47.410;9.730;2023-01-29T05:43:24;-3.00;99.90
47482;DHT22;33219;47.410;9.730;2023-01-29T05:45:53;-3.00;99.90
47482;DHT22;33219;47.410;9.730;2023-01-29T05:48:22;-3.10;99.90
47482;DHT22;33219;47.410;9.730;2023-01-29T05:50:50;-3.10;99.90
47482;DHT22;33219;47.410;9.730;2023-01-29T05:53:18;-3.00;99.90
47482;DHT22;33219;47.410;9.730;2023-01-29T05:55:47;-3.00;99.90
47482;DHT22;33219;47.410;9.730;2023-01-29T05:58:15;-3.00;99.90
47482;DHT22;33219;47.410;9.730;2023-01-29T06:00:44;-2.90;99.90
47482;DHT22;33219;47.410;9.730;2023-01-29T06:03:12;-2.90;99.90
47482;DHT22;33219;47.410;9.730;2023-01-29T06:05:39;-2.90;99.90
47482;DHT22;33219;47.410;9.730;2023-01-29T06:08:07;-2.80;99.90
47482;DHT22;33219;47.410;9.730;2023-01-29T06:10:35;-2.80;99.90
47482;DHT22;33219;47.410;9.730;2023-01-29T06:13:03;-2.80;99.90
47482;DHT22;33219;47.410;9.730;2023-01-29T06:15:30;-2.70;99.90
47482;DHT22;33219;47.410;9.730;2023-01-29T06:17:58;-2.70;99.90
47482;DHT22;33219;47.410;9.730;2023-01-29T06:20:25;-2.60;99.90
47482;DHT22;33219;47.410;9.730;2023-01-29T06:22:53;-2.60;99.90
47482;DHT22;33219;47.410;9.730;2023-01-29T06:25:20;-2.50;99.90
47482;DHT22;33219;47.410;9.730;2023-01-29T06:27:49;-2.50;99.90
47482;DHT22;33219;47.410;9.730;2023-01-29T06:30:17;-2.50;99.90
47482;DHT22;33219;47.410;9.730;2023-01-29T06:32:45;-2.50;99.90
47482;DHT22;33219;47.410;9.730;2023-01-29T06:35:13;-2.40;99.90
47482;DHT22;33219;47.410;9.730;2023-01-29T06:37:40;-2.50;99.90
47482;DHT22;33219;47.410;9.730;2023-01-29T06:40:09;-2.40;99.90
47482;DHT22;33219;47.410;9.730;2023-01-29T06:42:36;-2.40;99.90
47482;DHT22;33219;47.410;9.730;2023-01-29T06:45:04;-2.40;99.90
47482;DHT22;33219;47.410;9.730;2023-01-29T06:47:32;-2.40;99.90
47482;DHT22;33219;47.410;9.730;2023-01-29T06:50:00;-2.40;99.90
47482;DHT22;33219;47.410;9.730;2023-01-29T06:52:27;-2.30;99.90
47482;DHT22;33219;47.410;9.730;2023-01-29T06:54:55;-2.30;99.90
47482;DHT22;33219;47.410;9.730;2023-01-29T06:57:23;-2.30;99.90
47482;DHT22;33219;47.410;9.730;2023-01-29T06:59:50;-2.30;99.90
47482;DHT22;33219;47.410;9.730;2023-01-29T07:02:18;-2.20;99.90
47482;DHT22;33219;47.410;9.730;2023-01-29T07:04:45;-2.20;99.90
47482;DHT22;33219;47.410;9.730;2023-01-29T07:07:13;-2.20;99.90
47482;DHT22;33219;47.410;9.730;2023-01-29T07:09:41;-2.20;99.90
47482;DHT22;33219;47.410;9.730;2023-01-29T07:12:09;-2.10;99.90
47482;DHT22;33219;47.410;9.730;2023-01-29T07:14:37;-2.00;99.90
47482;DHT22;33219;47.410;9.730;2023-01-29T07:17:04;-2.00;99.90
47482;DHT22;33219;47.410;9.730;2023-01-29T07:19:32;-2.00;99.90
47482;DHT22;33219;47.410;9.730;2023-01-29T07:22:00;-2.10;99.90
47482;DHT22;33219;47.410;9.730;2023-01-29T07:24:29;-2.10;99.90
47482;DHT22;33219;47.410;9.730;2023-01-29T07:26:57;-2.20;99.90
47482;DHT22;33219;47.410;9.730;2023-01-29T07:29:24;-2.20;99.90
47482;DHT22;33219;47.410;9.730;2023-01-29T07:31:52;-2.30;99.90
47482;DHT22;33219;47.410;9.730;2023-01-29T07:34:19;-2.20;99.90
47482;DHT22;33219;47.410;9.730;2023-01-29T07:36:47;-2.30;99.90
47482;DHT22;33219;47.410;9.730;2023-01-29T07:39:15;-2.30;99.90
47482;DHT22;33219;47.410;9.730;2023-01-29T07:41:44;-2.30;99.90
47482;DHT22;33219;47.410;9.730;2023-01-29T07:44:11;-2.40;99.90
47482;DHT22;33219;47.410;9.730;2023-01-29T07:46:39;-2.50;99.90
47482;DHT22;33219;47.410;9.730;2023-01-29T07:49:07;-2.50;99.90
47482;DHT22;33219;47.410;9.730;2023-01-29T07:51:35;-2.50;99.90
47482;DHT22;33219;47.410;9.730;2023-01-29T07:54:02;-2.10;99.90
47482;DHT22;33219;47.410;9.730;2023-01-29T07:56:30;-1.40;99.90
47482;DHT22;33219;47.410;9.730;2023-01-29T07:58:58;-0.70;99.90
47482;DHT22;33219;47.410;9.730;2023-01-29T08:01:25;-0.20;99.90
47482;DHT22;33219;47.410;9.730;2023-01-29T08:03:53;-0.10;99.90
47482;DHT22;33219;47.410;9.730;2023-01-29T08:06:21;-0.10;99.90
47482;DHT22;33219;47.410;9.730;2023-01-29T08:08:48;0.00;99.90
47482;DHT22;33219;47.410;9.730;2023-01-29T08:11:17;0.20;99.90
47482;DHT22;33219;47.410;9.730;2023-01-29T08:13:45;0.20;99.90
47482;DHT22;33219;47.410;9.730;2023-01-29T08:16:12;0.30;99.90
47482;DHT22;33219;47.410;9.730;2023-01-29T08:18:40;0.50;99.90
47482;DHT22;33219;47.410;9.730;2023-01-29T08:21:12;0.60;99.90
47482;DHT22;33219;47.410;9.730;2023-01-29T08:23:40;0.40;99.90
47482;DHT22;33219;47.410;9.730;2023-01-29T08:26:07;0.40;99.90
47482;DHT22;33219;47.410;9.730;2023-01-29T08:28:35;0.40;99.90
47482;DHT22;33219;47.410;9.730;2023-01-29T08:31:11;0.40;99.90
47482;DHT22;33219;47.410;9.730;2023-01-29T08:33:33;0.60;99.90
47482;DHT22;33219;47.410;9.730;2023-01-29T08:36:01;0.70;99.90
47482;DHT22;33219;47.410;9.730;2023-01-29T08:38:28;0.70;99.90
47482;DHT22;33219;47.410;9.730;2023-01-29T08:40:56;0.80;99.90
47482;DHT22;33219;47.410;9.730;2023-01-29T08:43:23;1.00;99.90
47482;DHT22;33219;47.410;9.730;2023-01-29T08:45:51;1.10;99.90
47482;DHT22;33219;47.410;9.730;2023-01-29T08:48:22;1.60;99.90
47482;DHT22;33219;47.410;9.730;2023-01-29T08:50:50;1.70;99.90
47482;DHT22;33219;47.410;9.730;2023-01-29T08:53:18;2.10;99.90
47482;DHT22;33219;47.410;9.730;2023-01-29T08:55:47;2.50;99.90
47482;DHT22;33219;47.410;9.730;2023-01-29T08:58:15;2.40;99.90
47482;DHT22;33219;47.410;9.730;2023-01-29T09:00:43;2.20;99.90
47482;DHT22;33219;47.410;9.730;2023-01-29T09:03:10;1.90;99.90
47482;DHT22;33219;47.410;9.730;2023-01-29T09:05:39;1.80;99.90
47482;DHT22;33219;47.410;9.730;2023-01-29T09:08:08;1.60;99.90
47482;DHT22;33219;47.410;9.730;2023-01-29T09:10:35;1.20;99.90
47482;DHT22;33219;47.410;9.730;2023-01-29T09:13:04;1.10;99.90
47482;DHT22;33219;47.410;9.730;2023-01-29T09:15:31;1.10;99.90
47482;DHT22;33219;47.410;9.730;2023-01-29T09:18:03;1.20;99.90
47482;DHT22;33219;47.410;9.730;2023-01-29T09:20:31;1.30;99.90
47482;DHT22;33219;47.410;9.730;2023-01-29T09:23:07;1.30;99.90
47482;DHT22;33219;47.410;9.730;2023-01-29T09:25:36;1.30;99.90
47482;DHT22;33219;47.410;9.730;2023-01-29T09:28:03;1.30;99.90
47482;DHT22;33219;47.410;9.730;2023-01-29T09:30:31;1.30;99.90
47482;DHT22;33219;47.410;9.730;2023-01-29T09:33:00;1.10;99.90
47482;DHT22;33219;47.410;9.730;2023-01-29T09:35:28;1.20;99.90
47482;DHT22;33219;47.410;9.730;2023-01-29T09:37:55;1.30;99.90
47482;DHT22;33219;47.410;9.730;2023-01-29T09:43:19;1.20;99.90
47482;DHT22;33219;47.410;9.730;2023-01-29T09:45:57;1.50;99.90
47482;DHT22;33219;47.410;9.730;2023-01-29T09:48:22;1.60;99.90
47482;DHT22;33219;47.410;9.730;2023-01-29T09:50:52;1.70;99.90
47482;DHT22;33219;47.410;9.730;2023-01-29T09:56:10;1.90;99.90
47482;DHT22;33219;47.410;9.730;2023-01-29T09:58:36;2.00;99.90
47482;DHT22;33219;47.410;9.730;2023-01-29T10:01:36;2.10;99.90
47482;DHT22;33219;47.410;9.730;2023-01-29T10:10:05;2.20;99.90
47482;DHT22;33219;47.410;9.730;2023-01-29T10:15:26;2.40;99.60
47482;DHT22;33219;47.410;9.730;2023-01-29T10:21:01;2.60;99.30
47482;DHT22;33219;47.410;9.730;2023-01-29T10:25:57;2.60;99.10
47482;DHT22;33219;47.410;9.730;2023-01-29T10:31:04;2.30;99.10
47482;DHT22;33219;47.410;9.730;2023-01-29T10:33:44;2.30;99.40
47482;DHT22;33219;47.410;9.730;2023-01-29T10:36:33;2.30;99.10
47482;DHT22;33219;47.410;9.730;2023-01-29T10:39:00;2.30;99.00
47482;DHT22;33219;47.410;9.730;2023-01-29T10:55:57;2.40;97.80
47482;DHT22;33219;47.410;9.730;2023-01-29T11:00:54;2.50;97.40
47482;DHT22;33219;47.410;9.730;2023-01-29T11:03:30;2.40;96.40
47482;DHT22;33219;47.410;9.730;2023-01-29T11:06:01;2.50;95.80
47482;DHT22;33219;47.410;9.730;2023-01-29T11:08:33;2.60;96.10
47482;DHT22;33219;47.410;9.730;2023-01-29T11:11:08;2.60;96.20
47482;DHT22;33219;47.410;9.730;2023-01-29T11:16:19;3.00;95.50
47482;DHT22;33219;47.410;9.730;2023-01-29T11:18:54;3.00;94.60
47482;DHT22;33219;47.410;9.730;2023-01-29T11:21:24;3.00;94.70
47482;DHT22;33219;47.410;9.730;2023-01-29T11:24:10;3.00;94.70
47482;DHT22;33219;47.410;9.730;2023-01-29T11:26:40;3.00;95.60
47482;DHT22;33219;47.410;9.730;2023-01-29T11:32:10;3.00;96.20
47482;DHT22;33219;47.410;9.730;2023-01-29T11:34:57;3.10;96.10
47482;DHT22;33219;47.410;9.730;2023-01-29T11:37:15;3.10;95.50
47482;DHT22;33219;47.410;9.730;2023-01-29T11:39:44;3.20;95.40
47482;DHT22;33219;47.410;9.730;2023-01-29T11:42:25;3.20;95.80
47482;DHT22;33219;47.410;9.730;2023-01-29T11:44:44;3.00;95.50
47482;DHT22;33219;47.410;9.730;2023-01-29T11:47:28;3.00;95.70
47482;DHT22;33219;47.410;9.730;2023-01-29T11:49:59;2.90;95.80
47482;DHT22;33219;47.410;9.730;2023-01-29T11:52:35;2.90;96.10
47482;DHT22;33219;47.410;9.730;2023-01-29T11:55:23;2.90;96.00
47482;DHT22;33219;47.410;9.730;2023-01-29T12:00:26;3.10;96.20
47482;DHT22;33219;47.410;9.730;2023-01-29T12:03:06;3.00;96.00
47482;DHT22;33219;47.410;9.730;2023-01-29T12:05:26;3.10;95.90
47482;DHT22;33219;47.410;9.730;2023-01-29T12:07:55;3.10;95.80
47482;DHT22;33219;47.410;9.730;2023-01-29T12:10:39;3.10;95.40
47482;DHT22;33219;47.410;9.730;2023-01-29T12:15:46;3.00;95.50
47482;DHT22;33219;47.410;9.730;2023-01-29T12:18:18;3.10;95.40
47482;DHT22;33219;47.410;9.730;2023-01-29T12:20:50;3.20;95.10
47482;DHT22;33219;47.410;9.730;2023-01-29T12:23:42;3.10;94.60
47482;DHT22;33219;47.410;9.730;2023-01-29T12:26:15;2.80;95.10
47482;DHT22;33219;47.410;9.730;2023-01-29T12:29:03;2.60;95.40
47482;DHT22;33219;47.410;9.730;2023-01-29T12:34:26;2.60;95.40
47482;DHT22;33219;47.410;9.730;2023-01-29T12:37:02;2.70;95.30
47482;DHT22;33219;47.410;9.730;2023-01-29T12:39:29;2.70;95.00
47482;DHT22;33219;47.410;9.730;2023-01-29T12:42:08;2.70;95.10
47482;DHT22;33219;47.410;9.730;2023-01-29T12:44:47;2.80;95.20
47482;DHT22;33219;47.410;9.730;2023-01-29T12:47:56;2.80;95.40
47482;DHT22;33219;47.410;9.730;2023-01-29T12:49:47;2.80;94.70
47482;DHT22;33219;47.410;9.730;2023-01-29T12:52:21;2.80;95.00
47482;DHT22;33219;47.410;9.730;2023-01-29T12:54:49;2.80;95.70
47482;DHT22;33219;47.410;9.730;2023-01-29T12:57:41;2.90;95.80
47482;DHT22;33219;47.410;9.730;2023-01-29T13:00:14;3.00;95.90
47482;DHT22;33219;47.410;9.730;2023-01-29T13:03:00;3.20;96.00
47482;DHT22;33219;47.410;9.730;2023-01-29T13:05:28;3.30;96.50
47482;DHT22;33219;47.410;9.730;2023-01-29T13:08:07;3.20;96.10
47482;DHT22;33219;47.410;9.730;2023-01-29T13:10:34;3.30;96.10
47482;DHT22;33219;47.410;9.730;2023-01-29T13:13:05;3.20;96.30
47482;DHT22;33219;47.410;9.730;2023-01-29T13:15:35;3.30;96.50
47482;DHT22;33219;47.410;9.730;2023-01-29T13:20:47;3.20;96.50
47482;DHT22;33219;47.410;9.730;2023-01-29T13:23:20;3.30;96.30
47482;DHT22;33219;47.410;9.730;2023-01-29T13:25:53;3.40;96.10
47482;DHT22;33219;47.410;9.730;2023-01-29T13:28:23;3.30;95.80
47482;DHT22;33219;47.410;9.730;2023-01-29T13:31:16;3.30;96.00
47482;DHT22;33219;47.410;9.730;2023-01-29T13:33:43;3.30;96.20
47482;DHT22;33219;47.410;9.730;2023-01-29T13:36:17;3.30;96.30
47482;DHT22;33219;47.410;9.730;2023-01-29T13:38:46;3.20;96.50
47482;DHT22;33219;47.410;9.730;2023-01-29T13:41:15;3.20;97.00
47482;DHT22;33219;47.410;9.730;2023-01-29T13:43:44;3.20;96.90
47482;DHT22;33219;47.410;9.730;2023-01-29T13:46:16;3.20;96.40
47482;DHT22;33219;47.410;9.730;2023-01-29T13:48:46;3.00;96.60
47482;DHT22;33219;47.410;9.730;2023-01-29T13:51:20;3.00;96.60
47482;DHT22;33219;47.410;9.730;2023-01-29T13:54:06;3.10;96.80
47482;DHT22;33219;47.410;9.730;2023-01-29T13:56:44;3.20;96.60
47482;DHT22;33219;47.410;9.730;2023-01-29T14:04:26;3.10;96.60
47482;DHT22;33219;47.410;9.730;2023-01-29T14:07:01;3.00;96.70
47482;DHT22;33219;47.410;9.730;2023-01-29T14:12:51;2.90;96.80
47482;DHT22;33219;47.410;9.730;2023-01-29T14:15:00;3.00;97.00
47482;DHT22;33219;47.410;9.730;2023-01-29T14:17:26;2.80;97.10
47482;DHT22;33219;47.410;9.730;2023-01-29T14:20:14;2.60;97.30
47482;DHT22;33219;47.410;9.730;2023-01-29T14:22:32;2.50;97.20
47482;DHT22;33219;47.410;9.730;2023-01-29T14:25:02;2.50;97.40
47482;DHT22;33219;47.410;9.730;2023-01-29T14:27:32;2.50;97.40
47482;DHT22;33219;47.410;9.730;2023-01-29T14:30:06;2.50;97.20
47482;DHT22;33219;47.410;9.730;2023-01-29T14:32:37;2.50;97.70
47482;DHT22;33219;47.410;9.730;2023-01-29T14:35:23;2.40;97.50
47482;DHT22;33219;47.410;9.730;2023-01-29T14:37:54;2.30;97.80
47482;DHT22;33219;47.410;9.730;2023-01-29T14:40:24;2.30;98.10
47482;DHT22;33219;47.410;9.730;2023-01-29T14:43:03;2.20;98.00
47482;DHT22;33219;47.410;9.730;2023-01-29T14:45:33;2.30;97.40
47482;DHT22;33219;47.410;9.730;2023-01-29T14:50:51;2.30;97.60
47482;DHT22;33219;47.410;9.730;2023-01-29T14:53:28;2.30;97.80
47482;DHT22;33219;47.410;9.730;2023-01-29T14:56:00;2.20;98.00
47482;DHT22;33219;47.410;9.730;2023-01-29T14:58:35;2.20;98.40
47482;DHT22;33219;47.410;9.730;2023-01-29T15:01:06;2.20;98.50
47482;DHT22;33219;47.410;9.730;2023-01-29T15:03:42;2.20;98.40
47482;DHT22;33219;47.410;9.730;2023-01-29T15:06:16;2.10;98.60
47482;DHT22;33219;47.410;9.730;2023-01-29T15:08:55;2.10;99.10
47482;DHT22;33219;47.410;9.730;2023-01-29T15:11:39;2.00;99.30
47482;DHT22;33219;47.410;9.730;2023-01-29T15:16:55;1.90;99.60
47482;DHT22;33219;47.410;9.730;2023-01-29T15:19:31;1.80;99.90
47482;DHT22;33219;47.410;9.730;2023-01-29T15:22:10;1.80;99.90
47482;DHT22;33219;47.410;9.730;2023-01-29T15:24:35;1.70;99.90
47482;DHT22;33219;47.410;9.730;2023-01-29T15:27:04;1.70;99.90
47482;DHT22;33219;47.410;9.730;2023-01-29T15:29:33;1.60;99.90
47482;DHT22;33219;47.410;9.730;2023-01-29T15:32:02;1.60;99.90
47482;DHT22;33219;47.410;9.730;2023-01-29T15:34:29;1.50;99.90
47482;DHT22;33219;47.410;9.730;2023-01-29T15:36:57;1.40;99.90
47482;DHT22;33219;47.410;9.730;2023-01-29T15:39:25;1.30;99.90
47482;DHT22;33219;47.410;9.730;2023-01-29T15:42:13;1.30;99.90
47482;DHT22;33219;47.410;9.730;2023-01-29T15:44:44;1.20;99.90
47482;DHT22;33219;47.410;9.730;2023-01-29T15:47:13;1.10;99.90
47482;DHT22;33219;47.410;9.730;2023-01-29T15:49:41;1.00;99.90
47482;DHT22;33219;47.410;9.730;2023-01-29T15:52:32;1.00;99.90
47482;DHT22;33219;47.410;9.730;2023-01-29T15:55:01;0.90;99.90
47482;DHT22;33219;47.410;9.730;2023-01-29T15:57:36;0.80;99.90
47482;DHT22;33219;47.410;9.730;2023-01-29T16:00:16;0.80;99.90
47482;DHT22;33219;47.410;9.730;2023-01-29T16:02:38;0.60;99.90
47482;DHT22;33219;47.410;9.730;2023-01-29T16:05:15;0.60;99.90
47482;DHT22;33219;47.410;9.730;2023-01-29T16:07:44;0.60;99.90
47482;DHT22;33219;47.410;9.730;2023-01-29T16:10:21;0.50;99.90
47482;DHT22;33219;47.410;9.730;2023-01-29T16:12:47;0.50;99.90
47482;DHT22;33219;47.410;9.730;2023-01-29T16:15:25;0.30;99.90
47482;DHT22;33219;47.410;9.730;2023-01-29T16:17:49;0.30;99.90
47482;DHT22;33219;47.410;9.730;2023-01-29T16:20:39;0.20;99.90
47482;DHT22;33219;47.410;9.730;2023-01-29T16:23:15;0.20;99.90
47482;DHT22;33219;47.410;9.730;2023-01-29T16:25:38;0.10;99.90
47482;DHT22;33219;47.410;9.730;2023-01-29T16:28:06;0.00;99.90
47482;DHT22;33219;47.410;9.730;2023-01-29T16:30:36;0.00;99.90
47482;DHT22;33219;47.410;9.730;2023-01-29T16:33:07;-0.10;99.90
47482;DHT22;33219;47.410;9.730;2023-01-29T16:35:38;-0.20;99.90
47482;DHT22;33219;47.410;9.730;2023-01-29T16:41:07;-0.30;99.90
47482;DHT22;33219;47.410;9.730;2023-01-29T16:46:15;-0.20;99.90
47482;DHT22;33219;47.410;9.730;2023-01-29T16:48:42;-0.10;99.90
47482;DHT22;33219;47.410;9.730;2023-01-29T16:53:59;0.00;99.90
47482;DHT22;33219;47.410;9.730;2023-01-29T16:56:29;0.00;99.90
47482;DHT22;33219;47.410;9.730;2023-01-29T16:59:00;0.00;99.90
47482;DHT22;33219;47.410;9.730;2023-01-29T17:01:31;0.00;99.90
47482;DHT22;33219;47.410;9.730;2023-01-29T17:04:12;0.00;99.90
47482;DHT22;33219;47.410;9.730;2023-01-29T17:06:39;0.00;99.90
47482;DHT22;33219;47.410;9.730;2023-01-29T17:09:15;0.00;99.90
47482;DHT22;33219;47.410;9.730;2023-01-29T17:11:38;0.00;99.90
47482;DHT22;33219;47.410;9.730;2023-01-29T17:14:10;0.00;99.90
47482;DHT22;33219;47.410;9.730;2023-01-29T17:16:55;0.00;99.90
47482;DHT22;33219;47.410;9.730;2023-01-29T17:19:23;0.10;99.90
47482;DHT22;33219;47.410;9.730;2023-01-29T17:21:51;0.20;99.90
47482;DHT22;33219;47.410;9.730;2023-01-29T17:24:19;0.20;99.90
47482;DHT22;33219;47.410;9.730;2023-01-29T17:26:47;0.30;99.90
47482;DHT22;33219;47.410;9.730;2023-01-29T17:29:18;0.30;99.90
47482;DHT22;33219;47.410;9.730;2023-01-29T17:31:47;0.30;99.90
47482;DHT22;33219;47.410;9.730;2023-01-29T17:34:16;0.30;99.90
47482;DHT22;33219;47.410;9.730;2023-01-29T17:36:45;0.30;99.90
47482;DHT22;33219;47.410;9.730;2023-01-29T17:39:21;0.30;99.90
47482;DHT22;33219;47.410;9.730;2023-01-29T17:41:56;0.30;99.90
47482;DHT22;33219;47.410;9.730;2023-01-29T17:44:20;0.40;99.90
47482;DHT22;33219;47.410;9.730;2023-01-29T17:46:48;0.40;99.90
47482;DHT22;33219;47.410;9.730;2023-01-29T17:49:27;0.40;99.90
47482;DHT22;33219;47.410;9.730;2023-01-29T17:51:58;0.50;99.90
47482;DHT22;33219;47.410;9.730;2023-01-29T17:54:26;0.50;99.90
47482;DHT22;33219;47.410;9.730;2023-01-29T17:56:54;0.50;99.90
47482;DHT22;33219;47.410;9.730;2023-01-29T17:59:24;0.60;99.90
47482;DHT22;33219;47.410;9.730;2023-01-29T18:01:53;0.50;99.90
47482;DHT22;33219;47.410;9.730;2023-01-29T18:04:21;0.50;99.90